sensor_id;sensor_type;location;lat;lon;timestamp;P1;durP1;ratioP1;P2;durP2;ratioP2
71965;SDS011;59836;52.132;5.442;2023-03-21T00:00:28;12.68;;;8.95;;
71965;SDS011;59836;52.132;5.442;2023-03-21T00:02:54;12.13;;;8.38;;
71965;SDS011;59836;52.132;5.442;2023-03-21T00:05:21;11.40;;;7.97;;
71965;SDS011;59836;52.132;5.442;2023-03-21T00:07:47;13.00;;;8.35;;
71965;SDS011;59836;52.132;5.442;2023-03-21T00:10:14;12.68;;;8.75;;
71965;SDS011;59836;52.132;5.442;2023-03-21T00:12:55;13.02;;;8.00;;
71965;SDS011;59836;52.132;5.442;2023-03-21T00:15:24;12.60;;;8.13;;
71965;SDS011;59836;52.132;5.442;2023-03-21T00:18:09;12.17;;;8.23;;
71965;SDS011;59836;52.132;5.442;2023-03-21T00:20:37;12.38;;;8.10;;
71965;SDS011;59836;52.132;5.442;2023-03-21T00:23:04;11.10;;;7.90;;
71965;SDS011;59836;52.132;5.442;2023-03-21T00:25:30;12.00;;;8.23;;
71965;SDS011;59836;52.132;5.442;2023-03-21T00:27:58;11.00;;;8.13;;
71965;SDS011;59836;52.132;5.442;2023-03-21T00:30:33;12.33;;;7.93;;
71965;SDS011;59836;52.132;5.442;2023-03-21T00:33:00;11.15;;;8.02;;
71965;SDS011;59836;52.132;5.442;2023-03-21T00:35:40;10.07;;;7.30;;
71965;SDS011;59836;52.132;5.442;2023-03-21T00:38:30;10.88;;;6.93;;
71965;SDS011;59836;52.132;5.442;2023-03-21T00:40:56;10.27;;;7.72;;
71965;SDS011;59836;52.132;5.442;2023-03-21T00:43:29;11.93;;;7.80;;
71965;SDS011;59836;52.132;5.442;2023-03-21T00:45:56;11.32;;;7.72;;
71965;SDS011;59836;52.132;5.442;2023-03-21T00:48:24;9.18;;;7.05;;
71965;SDS011;59836;52.132;5.442;2023-03-21T00:50:53;12.10;;;7.00;;
71965;SDS011;59836;52.132;5.442;2023-03-21T00:53:20;10.45;;;6.82;;
71965;SDS011;59836;52.132;5.442;2023-03-21T00:55:47;9.77;;;6.40;;
71965;SDS011;59836;52.132;5.442;2023-03-21T00:58:13;9.75;;;6.65;;
71965;SDS011;59836;52.132;5.442;2023-03-21T01:00:40;9.05;;;6.13;;
71965;SDS011;59836;52.132;5.442;2023-03-21T01:03:08;10.18;;;6.82;;
71965;SDS011;59836;52.132;5.442;2023-03-21T01:05:50;9.88;;;6.60;;
71965;SDS011;59836;52.132;5.442;2023-03-21T01:08:30;10.90;;;6.83;;
71965;SDS011;59836;52.132;5.442;2023-03-21T01:11:17;11.13;;;7.30;;
71965;SDS011;59836;52.132;5.442;2023-03-21T01:13:45;10.68;;;7.82;;
71965;SDS011;59836;52.132;5.442;2023-03-21T01:16:22;11.35;;;7.40;;
71965;SDS011;59836;52.132;5.442;2023-03-21T01:18:50;13.48;;;8.43;;
71965;SDS011;59836;52.132;5.442;2023-03-21T01:21:17;11.83;;;8.60;;
71965;SDS011;59836;52.132;5.442;2023-03-21T01:23:44;13.20;;;8.48;;
71965;SDS011;59836;52.132;5.442;2023-03-21T01:26:11;13.00;;;9.00;;
71965;SDS011;59836;52.132;5.442;2023-03-21T01:28:39;12.40;;;8.35;;
71965;SDS011;59836;52.132;5.442;2023-03-21T01:31:07;13.00;;;8.77;;
71965;SDS011;59836;52.132;5.442;2023-03-21T01:33:34;13.73;;;9.23;;
71965;SDS011;59836;52.132;5.442;2023-03-21T01:36:01;13.18;;;8.50;;
71965;SDS011;59836;52.132;5.442;2023-03-21T01:38:39;15.02;;;9.48;;
71965;SDS011;59836;52.132;5.442;2023-03-21T01:41:06;15.27;;;9.35;;
71965;SDS011;59836;52.132;5.442;2023-03-21T01:43:44;12.93;;;9.30;;
71965;SDS011;59836;52.132;5.442;2023-03-21T01:46:21;13.83;;;9.60;;
71965;SDS011;59836;52.132;5.442;2023-03-21T01:49:10;14.93;;;9.43;;
71965;SDS011;59836;52.132;5.442;2023-03-21T01:51:41;17.88;;;10.05;;
71965;SDS011;59836;52.132;5.442;2023-03-21T01:54:12;16.52;;;9.95;;
71965;SDS011;59836;52.132;5.442;2023-03-21T01:56:42;18.27;;;10.50;;
71965;SDS011;59836;52.132;5.442;2023-03-21T01:59:32;17.57;;;10.63;;
71965;SDS011;59836;52.132;5.442;2023-03-21T02:02:04;19.08;;;11.05;;
71965;SDS011;59836;52.132;5.442;2023-03-21T02:04:35;18.40;;;11.25;;
71965;SDS011;59836;52.132;5.442;2023-03-21T02:09:39;18.45;;;11.23;;
71965;SDS011;59836;52.132;5.442;2023-03-21T02:12:09;20.20;;;11.57;;
71965;SDS011;59836;52.132;5.442;2023-03-21T02:14:36;20.17;;;12.35;;
71965;SDS011;59836;52.132;5.442;2023-03-21T02:17:07;19.88;;;12.55;;
71965;SDS011;59836;52.132;5.442;2023-03-21T02:22:46;18.88;;;12.00;;
71965;SDS011;59836;52.132;5.442;2023-03-21T02:25:32;17.20;;;10.27;;
71965;SDS011;59836;52.132;5.442;2023-03-21T02:34:35;20.85;;;11.98;;
71965;SDS011;59836;52.132;5.442;2023-03-21T02:39:23;20.00;;;11.53;;
71965;SDS011;59836;52.132;5.442;2023-03-21T02:44:38;17.45;;;11.18;;
71965;SDS011;59836;52.132;5.442;2023-03-21T02:47:23;19.92;;;10.82;;
71965;SDS011;59836;52.132;5.442;2023-03-21T02:50:20;20.02;;;10.93;;
71965;SDS011;59836;52.132;5.442;2023-03-21T02:52:52;19.17;;;10.37;;
71965;SDS011;59836;52.132;5.442;2023-03-21T02:55:24;19.27;;;11.27;;
71965;SDS011;59836;52.132;5.442;2023-03-21T02:57:53;19.02;;;11.13;;
71965;SDS011;59836;52.132;5.442;2023-03-21T03:00:23;18.60;;;11.18;;
71965;SDS011;59836;52.132;5.442;2023-03-21T03:02:52;18.02;;;10.95;;
71965;SDS011;59836;52.132;5.442;2023-03-21T03:05:35;18.80;;;10.83;;
71965;SDS011;59836;52.132;5.442;2023-03-21T03:08:17;20.15;;;11.57;;
71965;SDS011;59836;52.132;5.442;2023-03-21T03:11:25;16.73;;;10.07;;
71965;SDS011;59836;52.132;5.442;2023-03-21T03:14:13;18.23;;;10.52;;
71965;SDS011;59836;52.132;5.442;2023-03-21T03:20:32;20.80;;;10.50;;
71965;SDS011;59836;52.132;5.442;2023-03-21T03:23:13;19.23;;;10.35;;
71965;SDS011;59836;52.132;5.442;2023-03-21T03:26:04;17.40;;;10.02;;
71965;SDS011;59836;52.132;5.442;2023-03-21T03:28:35;17.52;;;9.43;;
71965;SDS011;59836;52.132;5.442;2023-03-21T03:31:04;19.52;;;9.75;;
71965;SDS011;59836;52.132;5.442;2023-03-21T03:33:36;16.77;;;9.77;;
71965;SDS011;59836;52.132;5.442;2023-03-21T03:36:05;22.60;;;10.25;;
71965;SDS011;59836;52.132;5.442;2023-03-21T03:38:53;18.35;;;10.40;;
71965;SDS011;59836;52.132;5.442;2023-03-21T03:41:25;17.10;;;9.80;;
71965;SDS011;59836;52.132;5.442;2023-03-21T03:43:55;20.52;;;11.30;;
71965;SDS011;59836;52.132;5.442;2023-03-21T03:46:43;19.30;;;10.30;;
71965;SDS011;59836;52.132;5.442;2023-03-21T03:49:17;17.08;;;10.13;;
71965;SDS011;59836;52.132;5.442;2023-03-21T03:51:54;20.25;;;10.50;;
71965;SDS011;59836;52.132;5.442;2023-03-21T03:54:45;21.30;;;11.05;;
71965;SDS011;59836;52.132;5.442;2023-03-21T03:57:12;21.40;;;10.93;;
71965;SDS011;59836;52.132;5.442;2023-03-21T03:59:40;19.13;;;10.47;;
71965;SDS011;59836;52.132;5.442;2023-03-21T04:02:08;16.15;;;10.27;;
71965;SDS011;59836;52.132;5.442;2023-03-21T04:04:36;21.95;;;11.07;;
71965;SDS011;59836;52.132;5.442;2023-03-21T04:07:03;19.90;;;10.25;;
71965;SDS011;59836;52.132;5.442;2023-03-21T04:09:29;19.02;;;11.05;;
71965;SDS011;59836;52.132;5.442;2023-03-21T04:12:09;18.10;;;10.57;;
71965;SDS011;59836;52.132;5.442;2023-03-21T04:14:35;19.23;;;11.25;;
71965;SDS011;59836;52.132;5.442;2023-03-21T04:17:11;19.10;;;10.55;;
71965;SDS011;59836;52.132;5.442;2023-03-21T04:19:37;22.65;;;11.57;;
71965;SDS011;59836;52.132;5.442;2023-03-21T04:22:03;19.27;;;10.63;;
71965;SDS011;59836;52.132;5.442;2023-03-21T04:24:30;19.57;;;10.97;;
71965;SDS011;59836;52.132;5.442;2023-03-21T04:26:59;22.42;;;11.10;;
71965;SDS011;59836;52.132;5.442;2023-03-21T04:29:25;19.75;;;11.38;;
71965;SDS011;59836;52.132;5.442;2023-03-21T04:31:54;19.05;;;10.05;;
71965;SDS011;59836;52.132;5.442;2023-03-21T04:34:21;22.23;;;10.50;;
71965;SDS011;59836;52.132;5.442;2023-03-21T04:36:49;19.93;;;9.60;;
71965;SDS011;59836;52.132;5.442;2023-03-21T04:39:16;21.65;;;11.10;;
71965;SDS011;59836;52.132;5.442;2023-03-21T04:41:43;23.48;;;11.70;;
71965;SDS011;59836;52.132;5.442;2023-03-21T04:44:11;21.33;;;11.32;;
71965;SDS011;59836;52.132;5.442;2023-03-21T04:46:39;20.05;;;10.60;;
71965;SDS011;59836;52.132;5.442;2023-03-21T04:49:06;23.67;;;10.87;;
71965;SDS011;59836;52.132;5.442;2023-03-21T04:51:33;20.55;;;11.40;;
71965;SDS011;59836;52.132;5.442;2023-03-21T04:54:00;21.00;;;11.35;;
71965;SDS011;59836;52.132;5.442;2023-03-21T04:56:27;21.33;;;11.40;;
71965;SDS011;59836;52.132;5.442;2023-03-21T04:58:59;23.00;;;11.90;;
71965;SDS011;59836;52.132;5.442;2023-03-21T05:01:32;22.10;;;11.23;;
71965;SDS011;59836;52.132;5.442;2023-03-21T05:04:00;17.73;;;10.75;;
71965;SDS011;59836;52.132;5.442;2023-03-21T05:06:27;21.65;;;11.70;;
71965;SDS011;59836;52.132;5.442;2023-03-21T05:08:54;18.73;;;10.57;;
71965;SDS011;59836;52.132;5.442;2023-03-21T05:11:26;18.65;;;11.38;;
71965;SDS011;59836;52.132;5.442;2023-03-21T05:13:56;18.57;;;10.67;;
71965;SDS011;59836;52.132;5.442;2023-03-21T05:16:23;20.55;;;10.18;;
71965;SDS011;59836;52.132;5.442;2023-03-21T05:18:52;17.23;;;9.13;;
71965;SDS011;59836;52.132;5.442;2023-03-21T05:21:21;19.42;;;8.50;;
71965;SDS011;59836;52.132;5.442;2023-03-21T05:23:48;16.60;;;8.15;;
71965;SDS011;59836;52.132;5.442;2023-03-21T05:26:19;15.10;;;8.03;;
71965;SDS011;59836;52.132;5.442;2023-03-21T05:28:47;18.17;;;8.25;;
71965;SDS011;59836;52.132;5.442;2023-03-21T05:31:14;16.55;;;8.65;;
71965;SDS011;59836;52.132;5.442;2023-03-21T05:33:42;16.00;;;7.95;;
71965;SDS011;59836;52.132;5.442;2023-03-21T05:36:09;20.33;;;8.60;;
71965;SDS011;59836;52.132;5.442;2023-03-21T05:38:36;15.60;;;7.90;;
71965;SDS011;59836;52.132;5.442;2023-03-21T05:41:03;17.17;;;7.55;;
71965;SDS011;59836;52.132;5.442;2023-03-21T05:43:29;14.50;;;8.20;;
71965;SDS011;59836;52.132;5.442;2023-03-21T05:45:56;19.58;;;8.45;;
71965;SDS011;59836;52.132;5.442;2023-03-21T05:48:23;13.50;;;7.22;;
71965;SDS011;59836;52.132;5.442;2023-03-21T05:50:49;15.83;;;8.03;;
71965;SDS011;59836;52.132;5.442;2023-03-21T05:53:15;16.15;;;6.95;;
71965;SDS011;59836;52.132;5.442;2023-03-21T05:55:42;14.75;;;7.18;;
71965;SDS011;59836;52.132;5.442;2023-03-21T05:58:08;15.55;;;6.90;;
71965;SDS011;59836;52.132;5.442;2023-03-21T06:00:35;14.32;;;8.02;;
71965;SDS011;59836;52.132;5.442;2023-03-21T06:03:01;12.23;;;7.03;;
71965;SDS011;59836;52.132;5.442;2023-03-21T06:05:27;14.57;;;7.15;;
71965;SDS011;59836;52.132;5.442;2023-03-21T06:07:54;15.38;;;8.18;;
71965;SDS011;59836;52.132;5.442;2023-03-21T06:10:20;14.90;;;7.30;;
71965;SDS011;59836;52.132;5.442;2023-03-21T06:12:47;12.70;;;7.05;;
71965;SDS011;59836;52.132;5.442;2023-03-21T06:15:13;15.77;;;7.73;;
71965;SDS011;59836;52.132;5.442;2023-03-21T06:17:40;12.75;;;6.57;;
71965;SDS011;59836;52.132;5.442;2023-03-21T06:20:07;12.77;;;7.35;;
71965;SDS011;59836;52.132;5.442;2023-03-21T06:22:34;11.68;;;6.90;;
71965;SDS011;59836;52.132;5.442;2023-03-21T06:25:00;13.95;;;7.75;;
71965;SDS011;59836;52.132;5.442;2023-03-21T06:27:27;14.77;;;7.47;;
71965;SDS011;59836;52.132;5.442;2023-03-21T06:29:53;12.73;;;6.57;;
71965;SDS011;59836;52.132;5.442;2023-03-21T06:32:20;14.80;;;8.02;;
71965;SDS011;59836;52.132;5.442;2023-03-21T06:34:46;19.25;;;8.02;;
71965;SDS011;59836;52.132;5.442;2023-03-21T06:37:12;15.55;;;6.80;;
71965;SDS011;59836;52.132;5.442;2023-03-21T06:39:39;13.20;;;6.90;;
71965;SDS011;59836;52.132;5.442;2023-03-21T06:42:06;16.00;;;6.68;;
71965;SDS011;59836;52.132;5.442;2023-03-21T06:44:32;16.20;;;6.90;;
71965;SDS011;59836;52.132;5.442;2023-03-21T06:46:58;14.48;;;6.95;;
71965;SDS011;59836;52.132;5.442;2023-03-21T06:49:25;15.38;;;6.30;;
71965;SDS011;59836;52.132;5.442;2023-03-21T06:51:52;12.30;;;6.80;;
71965;SDS011;59836;52.132;5.442;2023-03-21T06:54:19;13.63;;;6.15;;
71965;SDS011;59836;52.132;5.442;2023-03-21T06:56:46;15.50;;;7.35;;
71965;SDS011;59836;52.132;5.442;2023-03-21T06:59:12;11.95;;;6.78;;
71965;SDS011;59836;52.132;5.442;2023-03-21T07:01:38;14.52;;;6.20;;
71965;SDS011;59836;52.132;5.442;2023-03-21T07:04:05;20.03;;;6.27;;
71965;SDS011;59836;52.132;5.442;2023-03-21T07:06:31;19.88;;;6.40;;
71965;SDS011;59836;52.132;5.442;2023-03-21T07:08:59;13.70;;;6.50;;
71965;SDS011;59836;52.132;5.442;2023-03-21T07:11:25;14.25;;;6.40;;
71965;SDS011;59836;52.132;5.442;2023-03-21T07:13:52;16.20;;;6.45;;
71965;SDS011;59836;52.132;5.442;2023-03-21T07:16:18;12.47;;;6.00;;
71965;SDS011;59836;52.132;5.442;2023-03-21T07:18:46;14.70;;;6.68;;
71965;SDS011;59836;52.132;5.442;2023-03-21T07:21:13;13.13;;;6.00;;
71965;SDS011;59836;52.132;5.442;2023-03-21T07:23:39;12.00;;;6.18;;
71965;SDS011;59836;52.132;5.442;2023-03-21T07:26:06;12.30;;;6.28;;
71965;SDS011;59836;52.132;5.442;2023-03-21T07:28:32;13.40;;;5.83;;
71965;SDS011;59836;52.132;5.442;2023-03-21T07:31:00;12.40;;;5.60;;
71965;SDS011;59836;52.132;5.442;2023-03-21T07:33:29;11.00;;;5.60;;
71965;SDS011;59836;52.132;5.442;2023-03-21T07:35:57;12.18;;;6.15;;
71965;SDS011;59836;52.132;5.442;2023-03-21T07:38:24;12.45;;;6.13;;
71965;SDS011;59836;52.132;5.442;2023-03-21T07:40:51;12.00;;;5.97;;
71965;SDS011;59836;52.132;5.442;2023-03-21T07:43:18;10.40;;;5.97;;
71965;SDS011;59836;52.132;5.442;2023-03-21T07:45:45;11.50;;;6.35;;
71965;SDS011;59836;52.132;5.442;2023-03-21T07:48:12;11.82;;;5.47;;
71965;SDS011;59836;52.132;5.442;2023-03-21T07:50:39;15.73;;;5.60;;
71965;SDS011;59836;52.132;5.442;2023-03-21T07:53:06;13.70;;;5.90;;
71965;SDS011;59836;52.132;5.442;2023-03-21T07:55:33;11.63;;;5.53;;
71965;SDS011;59836;52.132;5.442;2023-03-21T07:58:03;13.57;;;6.35;;
71965;SDS011;59836;52.132;5.442;2023-03-21T08:00:29;10.52;;;5.18;;
71965;SDS011;59836;52.132;5.442;2023-03-21T08:02:56;11.60;;;5.85;;
71965;SDS011;59836;52.132;5.442;2023-03-21T08:05:34;13.17;;;5.77;;
71965;SDS011;59836;52.132;5.442;2023-03-21T08:08:03;10.52;;;5.57;;
71965;SDS011;59836;52.132;5.442;2023-03-21T08:10:31;12.88;;;6.50;;
71965;SDS011;59836;52.132;5.442;2023-03-21T08:12:58;14.77;;;6.55;;
71965;SDS011;59836;52.132;5.442;2023-03-21T08:15:24;12.13;;;5.93;;
71965;SDS011;59836;52.132;5.442;2023-03-21T08:17:51;12.57;;;6.30;;
71965;SDS011;59836;52.132;5.442;2023-03-21T08:20:18;14.20;;;5.70;;
71965;SDS011;59836;52.132;5.442;2023-03-21T08:22:47;15.13;;;6.13;;
71965;SDS011;59836;52.132;5.442;2023-03-21T08:25:14;13.98;;;6.18;;
71965;SDS011;59836;52.132;5.442;2023-03-21T08:27:43;12.85;;;5.07;;
71965;SDS011;59836;52.132;5.442;2023-03-21T08:30:12;13.10;;;5.33;;
71965;SDS011;59836;52.132;5.442;2023-03-21T08:32:41;9.77;;;5.57;;
71965;SDS011;59836;52.132;5.442;2023-03-21T08:35:09;14.40;;;5.60;;
71965;SDS011;59836;52.132;5.442;2023-03-21T08:37:38;11.55;;;5.03;;
71965;SDS011;59836;52.132;5.442;2023-03-21T08:40:07;13.80;;;4.97;;
71965;SDS011;59836;52.132;5.442;2023-03-21T08:42:36;13.00;;;4.97;;
71965;SDS011;59836;52.132;5.442;2023-03-21T08:45:04;9.43;;;5.05;;
71965;SDS011;59836;52.132;5.442;2023-03-21T08:47:31;9.73;;;5.15;;
71965;SDS011;59836;52.132;5.442;2023-03-21T08:49:58;8.70;;;4.80;;
71965;SDS011;59836;52.132;5.442;2023-03-21T08:52:25;9.65;;;5.03;;
71965;SDS011;59836;52.132;5.442;2023-03-21T08:54:52;11.03;;;4.90;;
71965;SDS011;59836;52.132;5.442;2023-03-21T08:57:19;10.80;;;5.13;;
71965;SDS011;59836;52.132;5.442;2023-03-21T08:59:46;11.43;;;5.25;;
71965;SDS011;59836;52.132;5.442;2023-03-21T09:02:13;7.85;;;4.40;;
71965;SDS011;59836;52.132;5.442;2023-03-21T09:04:41;13.20;;;4.88;;
71965;SDS011;59836;52.132;5.442;2023-03-21T09:07:09;9.23;;;4.40;;
71965;SDS011;59836;52.132;5.442;2023-03-21T09:09:37;9.40;;;5.10;;
71965;SDS011;59836;52.132;5.442;2023-03-21T09:12:04;8.80;;;4.75;;
71965;SDS011;59836;52.132;5.442;2023-03-21T09:14:31;8.93;;;4.25;;
71965;SDS011;59836;52.132;5.442;2023-03-21T09:16:58;9.38;;;4.97;;
71965;SDS011;59836;52.132;5.442;2023-03-21T09:19:24;8.70;;;4.37;;
71965;SDS011;59836;52.132;5.442;2023-03-21T09:21:51;10.98;;;4.55;;
71965;SDS011;59836;52.132;5.442;2023-03-21T09:24:19;9.20;;;4.68;;
71965;SDS011;59836;52.132;5.442;2023-03-21T09:26:45;11.45;;;5.43;;
71965;SDS011;59836;52.132;5.442;2023-03-21T09:29:16;8.05;;;4.47;;
71965;SDS011;59836;52.132;5.442;2023-03-21T09:31:44;8.57;;;3.90;;
71965;SDS011;59836;52.132;5.442;2023-03-21T09:34:12;8.60;;;3.63;;
71965;SDS011;59836;52.132;5.442;2023-03-21T09:36:40;11.30;;;4.82;;
71965;SDS011;59836;52.132;5.442;2023-03-21T09:39:09;6.97;;;4.18;;
71965;SDS011;59836;52.132;5.442;2023-03-21T09:44:57;9.43;;;4.40;;
71965;SDS011;59836;52.132;5.442;2023-03-21T09:47:31;9.02;;;4.43;;
71965;SDS011;59836;52.132;5.442;2023-03-21T09:50:12;9.52;;;4.53;;
71965;SDS011;59836;52.132;5.442;2023-03-21T09:52:45;10.15;;;4.50;;
71965;SDS011;59836;52.132;5.442;2023-03-21T09:55:17;10.93;;;4.50;;
71965;SDS011;59836;52.132;5.442;2023-03-21T09:57:49;9.33;;;4.73;;
71965;SDS011;59836;52.132;5.442;2023-03-21T10:00:27;9.35;;;5.00;;
71965;SDS011;59836;52.132;5.442;2023-03-21T10:03:07;9.95;;;5.45;;
71965;SDS011;59836;52.132;5.442;2023-03-21T10:05:44;11.73;;;5.03;;
71965;SDS011;59836;52.132;5.442;2023-03-21T10:08:16;9.90;;;4.90;;
71965;SDS011;59836;52.132;5.442;2023-03-21T10:10:50;11.20;;;4.87;;
71965;SDS011;59836;52.132;5.442;2023-03-21T10:13:28;11.02;;;5.15;;
71965;SDS011;59836;52.132;5.442;2023-03-21T10:15:59;10.38;;;5.10;;
71965;SDS011;59836;52.132;5.442;2023-03-21T10:18:34;11.10;;;5.20;;
71965;SDS011;59836;52.132;5.442;2023-03-21T10:21:02;8.45;;;4.63;;
71965;SDS011;59836;52.132;5.442;2023-03-21T10:23:30;9.87;;;4.90;;
71965;SDS011;59836;52.132;5.442;2023-03-21T10:25:57;10.68;;;5.00;;
71965;SDS011;59836;52.132;5.442;2023-03-21T10:28:28;14.55;;;4.78;;
71965;SDS011;59836;52.132;5.442;2023-03-21T10:31:16;7.90;;;4.93;;
71965;SDS011;59836;52.132;5.442;2023-03-21T10:33:47;11.50;;;5.07;;
71965;SDS011;59836;52.132;5.442;2023-03-21T10:36:16;11.37;;;5.37;;
71965;SDS011;59836;52.132;5.442;2023-03-21T10:38:49;8.35;;;4.53;;
71965;SDS011;59836;52.132;5.442;2023-03-21T10:41:19;11.50;;;4.85;;
71965;SDS011;59836;52.132;5.442;2023-03-21T10:43:46;8.07;;;4.53;;
71965;SDS011;59836;52.132;5.442;2023-03-21T10:46:28;8.00;;;4.63;;
71965;SDS011;59836;52.132;5.442;2023-03-21T10:48:55;10.50;;;4.27;;
71965;SDS011;59836;52.132;5.442;2023-03-21T10:51:22;7.03;;;4.40;;
71965;SDS011;59836;52.132;5.442;2023-03-21T10:54:11;9.70;;;4.43;;
71965;SDS011;59836;52.132;5.442;2023-03-21T10:56:42;9.88;;;4.20;;
71965;SDS011;59836;52.132;5.442;2023-03-21T10:59:16;8.65;;;4.78;;
71965;SDS011;59836;52.132;5.442;2023-03-21T11:01:47;7.47;;;4.13;;
71965;SDS011;59836;52.132;5.442;2023-03-21T11:04:21;9.50;;;4.55;;
71965;SDS011;59836;52.132;5.442;2023-03-21T11:06:54;6.93;;;4.70;;
71965;SDS011;59836;52.132;5.442;2023-03-21T11:09:43;8.20;;;4.40;;
71965;SDS011;59836;52.132;5.442;2023-03-21T11:12:27;13.68;;;4.43;;
71965;SDS011;59836;52.132;5.442;2023-03-21T11:14:54;9.00;;;4.40;;
71965;SDS011;59836;52.132;5.442;2023-03-21T11:17:29;9.80;;;4.30;;
71965;SDS011;59836;52.132;5.442;2023-03-21T11:20:00;10.30;;;4.50;;
71965;SDS011;59836;52.132;5.442;2023-03-21T11:22:39;9.27;;;4.10;;
71965;SDS011;59836;52.132;5.442;2023-03-21T11:25:08;10.13;;;4.57;;
71965;SDS011;59836;52.132;5.442;2023-03-21T11:27:52;7.07;;;4.40;;
71965;SDS011;59836;52.132;5.442;2023-03-21T11:30:21;9.40;;;4.03;;
71965;SDS011;59836;52.132;5.442;2023-03-21T11:32:50;6.88;;;4.03;;
71965;SDS011;59836;52.132;5.442;2023-03-21T11:35:22;8.63;;;3.75;;
71965;SDS011;59836;52.132;5.442;2023-03-21T11:37:54;7.50;;;3.88;;
71965;SDS011;59836;52.132;5.442;2023-03-21T11:40:28;6.07;;;3.60;;
71965;SDS011;59836;52.132;5.442;2023-03-21T11:43:05;6.90;;;3.50;;
71965;SDS011;59836;52.132;5.442;2023-03-21T11:48:29;8.10;;;4.72;;
71965;SDS011;59836;52.132;5.442;2023-03-21T11:51:05;8.85;;;4.68;;
71965;SDS011;59836;52.132;5.442;2023-03-21T11:54:08;9.20;;;4.17;;
71965;SDS011;59836;52.132;5.442;2023-03-21T11:59:42;7.55;;;4.22;;
71965;SDS011;59836;52.132;5.442;2023-03-21T12:02:38;8.23;;;4.25;;
71965;SDS011;59836;52.132;5.442;2023-03-21T12:05:27;9.13;;;4.47;;
71965;SDS011;59836;52.132;5.442;2023-03-21T12:08:17;9.10;;;3.77;;
71965;SDS011;59836;52.132;5.442;2023-03-21T12:11:14;8.52;;;4.22;;
71965;SDS011;59836;52.132;5.442;2023-03-21T12:16:30;7.72;;;4.65;;
71965;SDS011;59836;52.132;5.442;2023-03-21T12:19:27;8.52;;;4.50;;
71965;SDS011;59836;52.132;5.442;2023-03-21T12:22:13;7.63;;;3.73;;
71965;SDS011;59836;52.132;5.442;2023-03-21T12:24:50;9.43;;;4.65;;
71965;SDS011;59836;52.132;5.442;2023-03-21T12:27:41;9.38;;;4.10;;
71965;SDS011;59836;52.132;5.442;2023-03-21T12:30:30;8.75;;;4.30;;
71965;SDS011;59836;52.132;5.442;2023-03-21T12:41:49;9.57;;;4.35;;
71965;SDS011;59836;52.132;5.442;2023-03-21T12:44:26;9.88;;;4.45;;
71965;SDS011;59836;52.132;5.442;2023-03-21T12:46:59;9.48;;;5.03;;
71965;SDS011;59836;52.132;5.442;2023-03-21T12:49:33;6.50;;;3.73;;
71965;SDS011;59836;52.132;5.442;2023-03-21T12:52:04;9.05;;;4.50;;
71965;SDS011;59836;52.132;5.442;2023-03-21T12:57:14;10.32;;;5.20;;
71965;SDS011;59836;52.132;5.442;2023-03-21T12:59:57;8.70;;;5.40;;
71965;SDS011;59836;52.132;5.442;2023-03-21T13:02:31;8.50;;;4.90;;
71965;SDS011;59836;52.132;5.442;2023-03-21T13:10:31;8.88;;;5.13;;
71965;SDS011;59836;52.132;5.442;2023-03-21T13:13:14;10.65;;;5.38;;
71965;SDS011;59836;52.132;5.442;2023-03-21T13:18:41;9.15;;;5.28;;
71965;SDS011;59836;52.132;5.442;2023-03-21T13:21:17;7.40;;;4.70;;
71965;SDS011;59836;52.132;5.442;2023-03-21T13:24:14;9.32;;;5.80;;
71965;SDS011;59836;52.132;5.442;2023-03-21T13:26:44;8.82;;;5.90;;
71965;SDS011;59836;52.132;5.442;2023-03-21T13:29:31;8.83;;;6.23;;
71965;SDS011;59836;52.132;5.442;2023-03-21T13:32:08;9.48;;;5.45;;
71965;SDS011;59836;52.132;5.442;2023-03-21T13:34:44;9.80;;;5.22;;
71965;SDS011;59836;52.132;5.442;2023-03-21T13:37:14;7.28;;;5.13;;
71965;SDS011;59836;52.132;5.442;2023-03-21T13:39:44;9.25;;;5.90;;
71965;SDS011;59836;52.132;5.442;2023-03-21T13:42:17;8.53;;;5.43;;
71965;SDS011;59836;52.132;5.442;2023-03-21T13:44:58;8.50;;;5.68;;
71965;SDS011;59836;52.132;5.442;2023-03-21T13:47:39;9.30;;;6.20;;
71965;SDS011;59836;52.132;5.442;2023-03-21T13:55:44;9.50;;;5.53;;
71965;SDS011;59836;52.132;5.442;2023-03-21T14:01:56;10.88;;;6.20;;
71965;SDS011;59836;52.132;5.442;2023-03-21T14:03:58;8.45;;;5.93;;
71965;SDS011;59836;52.132;5.442;2023-03-21T14:06:53;9.88;;;5.78;;
71965;SDS011;59836;52.132;5.442;2023-03-21T14:09:35;9.17;;;5.40;;
71965;SDS011;59836;52.132;5.442;2023-03-21T14:12:06;12.85;;;6.57;;
71965;SDS011;59836;52.132;5.442;2023-03-21T14:14:37;8.77;;;5.50;;
71965;SDS011;59836;52.132;5.442;2023-03-21T14:17:11;11.57;;;5.57;;
71965;SDS011;59836;52.132;5.442;2023-03-21T14:19:39;9.23;;;6.10;;
71965;SDS011;59836;52.132;5.442;2023-03-21T14:22:09;12.90;;;6.60;;
71965;SDS011;59836;52.132;5.442;2023-03-21T14:24:38;9.35;;;5.72;;
71965;SDS011;59836;52.132;5.442;2023-03-21T14:27:06;9.15;;;6.38;;
71965;SDS011;59836;52.132;5.442;2023-03-21T14:29:33;8.20;;;5.55;;
71965;SDS011;59836;52.132;5.442;2023-03-21T14:32:01;9.70;;;5.72;;
71965;SDS011;59836;52.132;5.442;2023-03-21T14:34:30;9.90;;;5.30;;
71965;SDS011;59836;52.132;5.442;2023-03-21T14:36:58;7.97;;;5.47;;
71965;SDS011;59836;52.132;5.442;2023-03-21T14:39:31;8.98;;;6.00;;
71965;SDS011;59836;52.132;5.442;2023-03-21T14:42:03;10.05;;;5.55;;
71965;SDS011;59836;52.132;5.442;2023-03-21T14:47:21;11.83;;;4.90;;
71965;SDS011;59836;52.132;5.442;2023-03-21T14:49:49;7.78;;;5.75;;
71965;SDS011;59836;52.132;5.442;2023-03-21T14:52:18;9.43;;;5.03;;
71965;SDS011;59836;52.132;5.442;2023-03-21T14:54:49;8.70;;;4.93;;
71965;SDS011;59836;52.132;5.442;2023-03-21T14:57:26;8.02;;;6.00;;
71965;SDS011;59836;52.132;5.442;2023-03-21T14:59:57;9.80;;;5.67;;
71965;SDS011;59836;52.132;5.442;2023-03-21T15:02:41;7.88;;;5.20;;
71965;SDS011;59836;52.132;5.442;2023-03-21T15:05:31;9.32;;;5.85;;
71965;SDS011;59836;52.132;5.442;2023-03-21T15:13:52;10.23;;;5.90;;
71965;SDS011;59836;52.132;5.442;2023-03-21T15:16:21;11.57;;;6.38;;
71965;SDS011;59836;52.132;5.442;2023-03-21T15:18:48;9.27;;;6.10;;
71965;SDS011;59836;52.132;5.442;2023-03-21T15:24:09;7.43;;;5.65;;
71965;SDS011;59836;52.132;5.442;2023-03-21T15:26:39;8.80;;;5.77;;
71965;SDS011;59836;52.132;5.442;2023-03-21T15:29:25;11.68;;;5.32;;
71965;SDS011;59836;52.132;5.442;2023-03-21T15:31:52;8.93;;;6.00;;
71965;SDS011;59836;52.132;5.442;2023-03-21T15:34:20;6.45;;;5.30;;
71965;SDS011;59836;52.132;5.442;2023-03-21T15:36:53;14.50;;;6.43;;
71965;SDS011;59836;52.132;5.442;2023-03-21T15:39:27;11.07;;;6.03;;
71965;SDS011;59836;52.132;5.442;2023-03-21T15:41:55;10.25;;;6.03;;
71965;SDS011;59836;52.132;5.442;2023-03-21T15:44:28;12.52;;;6.20;;
71965;SDS011;59836;52.132;5.442;2023-03-21T15:46:55;7.78;;;5.80;;
71965;SDS011;59836;52.132;5.442;2023-03-21T15:51:57;9.27;;;5.50;;
71965;SDS011;59836;52.132;5.442;2023-03-21T15:54:43;9.15;;;6.05;;
71965;SDS011;59836;52.132;5.442;2023-03-21T15:57:23;7.57;;;5.57;;
71965;SDS011;59836;52.132;5.442;2023-03-21T16:00:00;9.18;;;5.90;;
71965;SDS011;59836;52.132;5.442;2023-03-21T16:02:44;12.05;;;5.68;;
71965;SDS011;59836;52.132;5.442;2023-03-21T16:05:24;10.97;;;5.83;;
71965;SDS011;59836;52.132;5.442;2023-03-21T16:07:56;9.27;;;6.00;;
71965;SDS011;59836;52.132;5.442;2023-03-21T16:10:31;8.80;;;6.03;;
71965;SDS011;59836;52.132;5.442;2023-03-21T16:13:02;7.55;;;4.88;;
71965;SDS011;59836;52.132;5.442;2023-03-21T16:15:32;10.73;;;6.22;;
71965;SDS011;59836;52.132;5.442;2023-03-21T16:17:59;9.17;;;5.73;;